sensor_id;sensor_type;location;lat;lon;timestamp;P1;durP1;ratioP1;P2;durP2;ratioP2
18893;SDS011;9579;49.488;8.226;2023-04-19T02:53:41;8.07;;;7.37;;
18893;SDS011;9579;49.488;8.226;2023-04-19T02:56:28;7.87;;;7.27;;
18893;SDS011;9579;49.488;8.226;2023-04-19T02:59:15;7.60;;;7.00;;
18893;SDS011;9579;49.488;8.226;2023-04-19T03:02:02;7.30;;;6.70;;
18893;SDS011;9579;49.488;8.226;2023-04-19T03:04:49;7.93;;;7.23;;
18893;SDS011;9579;49.488;8.226;2023-04-19T03:07:37;7.60;;;6.97;;
18893;SDS011;9579;49.488;8.226;2023-04-19T03:10:25;7.90;;;7.20;;
18893;SDS011;9579;49.488;8.226;2023-04-19T03:13:12;7.53;;;6.93;;
18893;SDS011;9579;49.488;8.226;2023-04-19T03:15:59;7.80;;;7.10;;
18893;SDS011;9579;49.488;8.226;2023-04-19T03:18:46;7.20;;;6.63;;
18893;SDS011;9579;49.488;8.226;2023-04-19T03:21:33;7.70;;;7.00;;
18893;SDS011;9579;49.488;8.226;2023-04-19T03:24:25;7.67;;;7.07;;
18893;SDS011;9579;49.488;8.226;2023-04-19T03:27:14;8.13;;;6.90;;
18893;SDS011;9579;49.488;8.226;2023-04-19T03:30:01;7.87;;;7.27;;
18893;SDS011;9579;49.488;8.226;2023-04-19T03:32:49;7.23;;;6.73;;
18893;SDS011;9579;49.488;8.226;2023-04-19T03:35:37;8.10;;;7.40;;
18893;SDS011;9579;49.488;8.226;2023-04-19T03:38:24;7.70;;;7.10;;
18893;SDS011;9579;49.488;8.226;2023-04-19T03:41:18;7.87;;;7.20;;
18893;SDS011;9579;49.488;8.226;2023-04-19T03:44:06;7.37;;;6.87;;
18893;SDS011;9579;49.488;8.226;2023-04-19T03:46:53;7.53;;;6.93;;
18893;SDS011;9579;49.488;8.226;2023-04-19T03:49:40;7.47;;;6.87;;
18893;SDS011;9579;49.488;8.226;2023-04-19T03:52:27;7.27;;;6.63;;
18893;SDS011;9579;49.488;8.226;2023-04-19T03:55:14;8.43;;;7.73;;
18893;SDS011;9579;49.488;8.226;2023-04-19T03:58:01;7.83;;;7.13;;
18893;SDS011;9579;49.488;8.226;2023-04-19T04:00:50;7.90;;;7.30;;
18893;SDS011;9579;49.488;8.226;2023-04-19T04:03:37;7.97;;;7.30;;
18893;SDS011;9579;49.488;8.226;2023-04-19T04:06:24;8.10;;;7.50;;
18893;SDS011;9579;49.488;8.226;2023-04-19T04:09:12;7.50;;;6.90;;
18893;SDS011;9579;49.488;8.226;2023-04-19T04:11:59;7.30;;;6.77;;
18893;SDS011;9579;49.488;8.226;2023-04-19T04:14:46;7.77;;;7.17;;
18893;SDS011;9579;49.488;8.226;2023-04-19T04:17:34;7.90;;;7.20;;
18893;SDS011;9579;49.488;8.226;2023-04-19T04:20:21;7.80;;;7.10;;
18893;SDS011;9579;49.488;8.226;2023-04-19T04:23:08;8.70;;;7.90;;
18893;SDS011;9579;49.488;8.226;2023-04-19T04:25:56;8.03;;;7.33;;
18893;SDS011;9579;49.488;8.226;2023-04-19T04:28:44;7.87;;;7.27;;
18893;SDS011;9579;49.488;8.226;2023-04-19T04:31:31;7.50;;;6.90;;
18893;SDS011;9579;49.488;8.226;2023-04-19T04:34:21;7.80;;;7.20;;
18893;SDS011;9579;49.488;8.226;2023-04-19T04:37:09;8.23;;;7.53;;
18893;SDS011;9579;49.488;8.226;2023-04-19T04:39:56;8.33;;;7.60;;
18893;SDS011;9579;49.488;8.226;2023-04-19T04:42:43;8.37;;;7.60;;
18893;SDS011;9579;49.488;8.226;2023-04-19T04:45:30;7.43;;;6.83;;
18893;SDS011;9579;49.488;8.226;2023-04-19T04:48:18;7.97;;;7.30;;
18893;SDS011;9579;49.488;8.226;2023-04-19T04:51:06;7.70;;;7.10;;
18893;SDS011;9579;49.488;8.226;2023-04-19T04:53:53;7.90;;;7.30;;
18893;SDS011;9579;49.488;8.226;2023-04-19T04:56:41;8.07;;;7.47;;
18893;SDS011;9579;49.488;8.226;2023-04-19T04:59:28;7.57;;;6.87;;
18893;SDS011;9579;49.488;8.226;2023-04-19T05:02:15;7.70;;;7.10;;
18893;SDS011;9579;49.488;8.226;2023-04-19T05:05:03;7.83;;;7.23;;
18893;SDS011;9579;49.488;8.226;2023-04-19T05:07:51;7.60;;;7.00;;
18893;SDS011;9579;49.488;8.226;2023-04-19T05:10:38;8.10;;;7.50;;
18893;SDS011;9579;49.488;8.226;2023-04-19T05:13:26;7.90;;;7.20;;
18893;SDS011;9579;49.488;8.226;2023-04-19T05:16:13;8.50;;;7.80;;
18893;SDS011;9579;49.488;8.226;2023-04-19T05:19:00;7.97;;;7.37;;
18893;SDS011;9579;49.488;8.226;2023-04-19T05:21:47;8.73;;;8.03;;
18893;SDS011;9579;49.488;8.226;2023-04-19T05:24:35;8.47;;;7.77;;
18893;SDS011;9579;49.488;8.226;2023-04-19T05:27:22;8.47;;;7.77;;
18893;SDS011;9579;49.488;8.226;2023-04-19T05:30:09;8.40;;;7.73;;
18893;SDS011;9579;49.488;8.226;2023-04-19T05:32:56;8.70;;;7.90;;
18893;SDS011;9579;49.488;8.226;2023-04-19T05:35:44;8.60;;;7.83;;
18893;SDS011;9579;49.488;8.226;2023-04-19T05:38:31;8.40;;;7.80;;
18893;SDS011;9579;49.488;8.226;2023-04-19T05:41:19;8.40;;;7.70;;
18893;SDS011;9579;49.488;8.226;2023-04-19T05:44:06;7.70;;;7.10;;
18893;SDS011;9579;49.488;8.226;2023-04-19T05:46:53;7.93;;;7.23;;
18893;SDS011;9579;49.488;8.226;2023-04-19T05:49:40;8.53;;;7.77;;
18893;SDS011;9579;49.488;8.226;2023-04-19T05:52:27;8.47;;;7.67;;
18893;SDS011;9579;49.488;8.226;2023-04-19T05:55:14;7.63;;;7.03;;
18893;SDS011;9579;49.488;8.226;2023-04-19T05:58:03;8.20;;;7.50;;
18893;SDS011;9579;49.488;8.226;2023-04-19T06:00:50;8.00;;;7.20;;
18893;SDS011;9579;49.488;8.226;2023-04-19T06:03:37;7.63;;;7.03;;
18893;SDS011;9579;49.488;8.226;2023-04-19T06:06:24;8.13;;;7.43;;
18893;SDS011;9579;49.488;8.226;2023-04-19T06:09:11;8.37;;;7.60;;
18893;SDS011;9579;49.488;8.226;2023-04-19T06:11:59;7.97;;;7.27;;
18893;SDS011;9579;49.488;8.226;2023-04-19T06:14:47;8.20;;;7.60;;
18893;SDS011;9579;49.488;8.226;2023-04-19T06:17:35;8.87;;;8.07;;
18893;SDS011;9579;49.488;8.226;2023-04-19T06:20:22;7.97;;;7.37;;
18893;SDS011;9579;49.488;8.226;2023-04-19T06:23:09;8.40;;;7.70;;
18893;SDS011;9579;49.488;8.226;2023-04-19T06:25:58;8.70;;;7.90;;
18893;SDS011;9579;49.488;8.226;2023-04-19T06:28:45;8.93;;;8.10;;
18893;SDS011;9579;49.488;8.226;2023-04-19T06:31:33;9.27;;;8.47;;
18893;SDS011;9579;49.488;8.226;2023-04-19T06:34:20;9.80;;;8.90;;
18893;SDS011;9579;49.488;8.226;2023-04-19T06:37:07;9.30;;;8.60;;
18893;SDS011;9579;49.488;8.226;2023-04-19T06:39:54;9.97;;;9.17;;
18893;SDS011;9579;49.488;8.226;2023-04-19T06:42:41;9.80;;;9.00;;
18893;SDS011;9579;49.488;8.226;2023-04-19T06:45:28;9.70;;;8.90;;
18893;SDS011;9579;49.488;8.226;2023-04-19T06:48:17;9.80;;;8.90;;
18893;SDS011;9579;49.488;8.226;2023-04-19T06:51:04;9.73;;;8.93;;
18893;SDS011;9579;49.488;8.226;2023-04-19T06:53:51;10.17;;;9.20;;
18893;SDS011;9579;49.488;8.226;2023-04-19T06:56:39;9.57;;;8.77;;
18893;SDS011;9579;49.488;8.226;2023-04-19T06:59:29;9.90;;;9.10;;
18893;SDS011;9579;49.488;8.226;2023-04-19T07:02:16;9.93;;;9.10;;
18893;SDS011;9579;49.488;8.226;2023-04-19T07:05:05;10.10;;;9.20;;
18893;SDS011;9579;49.488;8.226;2023-04-19T07:07:53;10.07;;;9.07;;
18893;SDS011;9579;49.488;8.226;2023-04-19T07:10:40;10.40;;;9.50;;
18893;SDS011;9579;49.488;8.226;2023-04-19T07:13:28;10.67;;;9.77;;
18893;SDS011;9579;49.488;8.226;2023-04-19T07:16:15;10.13;;;9.30;;
18893;SDS011;9579;49.488;8.226;2023-04-19T07:19:02;11.07;;;10.07;;
18893;SDS011;9579;49.488;8.226;2023-04-19T07:21:51;11.00;;;10.00;;
18893;SDS011;9579;49.488;8.226;2023-04-19T07:24:38;10.60;;;9.60;;
18893;SDS011;9579;49.488;8.226;2023-04-19T07:27:26;10.07;;;9.17;;
18893;SDS011;9579;49.488;8.226;2023-04-19T07:30:13;10.00;;;9.13;;
18893;SDS011;9579;49.488;8.226;2023-04-19T07:33:00;10.75;;;9.85;;
18893;SDS011;9579;49.488;8.226;2023-04-19T07:35:48;11.57;;;10.57;;
18893;SDS011;9579;49.488;8.226;2023-04-19T07:38:37;11.57;;;10.50;;
18893;SDS011;9579;49.488;8.226;2023-04-19T07:41:24;10.37;;;9.47;;
18893;SDS011;9579;49.488;8.226;2023-04-19T07:44:11;13.30;;;12.00;;
18893;SDS011;9579;49.488;8.226;2023-04-19T07:46:58;12.73;;;11.53;;
18893;SDS011;9579;49.488;8.226;2023-04-19T07:49:45;11.60;;;10.60;;
18893;SDS011;9579;49.488;8.226;2023-04-19T07:52:32;11.83;;;10.83;;
18893;SDS011;9579;49.488;8.226;2023-04-19T07:55:21;11.37;;;10.47;;
18893;SDS011;9579;49.488;8.226;2023-04-19T07:58:08;12.07;;;10.97;;
18893;SDS011;9579;49.488;8.226;2023-04-19T08:00:55;10.93;;;10.03;;
18893;SDS011;9579;49.488;8.226;2023-04-19T08:03:42;12.07;;;11.07;;
18893;SDS011;9579;49.488;8.226;2023-04-19T08:06:31;12.87;;;11.77;;
18893;SDS011;9579;49.488;8.226;2023-04-19T08:09:18;11.77;;;10.77;;
18893;SDS011;9579;49.488;8.226;2023-04-19T08:12:06;11.93;;;10.87;;
18893;SDS011;9579;49.488;8.226;2023-04-19T08:14:53;12.10;;;11.10;;
18893;SDS011;9579;49.488;8.226;2023-04-19T08:17:40;12.40;;;11.30;;
18893;SDS011;9579;49.488;8.226;2023-04-19T08:20:28;12.00;;;10.93;;
18893;SDS011;9579;49.488;8.226;2023-04-19T08:23:15;11.47;;;10.47;;
18893;SDS011;9579;49.488;8.226;2023-04-19T08:26:03;11.82;;;10.80;;
18893;SDS011;9579;49.488;8.226;2023-04-19T08:28:51;11.73;;;10.73;;
18893;SDS011;9579;49.488;8.226;2023-04-19T08:31:38;10.75;;;9.75;;
18893;SDS011;9579;49.488;8.226;2023-04-19T08:34:29;10.75;;;9.85;;
18893;SDS011;9579;49.488;8.226;2023-04-19T08:37:16;10.82;;;9.93;;
18893;SDS011;9579;49.488;8.226;2023-04-19T08:40:03;11.35;;;10.35;;
18893;SDS011;9579;49.488;8.226;2023-04-19T08:42:51;10.95;;;10.00;;
18893;SDS011;9579;49.488;8.226;2023-04-19T08:45:40;12.02;;;10.52;;
18893;SDS011;9579;49.488;8.226;2023-04-19T08:48:27;11.90;;;10.80;;
18893;SDS011;9579;49.488;8.226;2023-04-19T08:51:15;12.45;;;11.45;;
18893;SDS011;9579;49.488;8.226;2023-04-19T08:54:05;13.87;;;12.67;;
18893;SDS011;9579;49.488;8.226;2023-04-19T08:57:26;12.40;;;11.25;;
18893;SDS011;9579;49.488;8.226;2023-04-19T09:10:04;11.55;;;10.45;;
18893;SDS011;9579;49.488;8.226;2023-04-19T09:13:19;12.15;;;11.05;;
18893;SDS011;9579;49.488;8.226;2023-04-19T09:16:00;12.00;;;10.90;;
18893;SDS011;9579;49.488;8.226;2023-04-19T09:18:56;12.20;;;11.10;;
18893;SDS011;9579;49.488;8.226;2023-04-19T09:21:53;11.90;;;10.80;;
18893;SDS011;9579;49.488;8.226;2023-04-19T09:25:09;12.32;;;11.23;;
18893;SDS011;9579;49.488;8.226;2023-04-19T09:32:26;11.48;;;10.48;;
18893;SDS011;9579;49.488;8.226;2023-04-19T09:43:25;12.23;;;11.20;;
18893;SDS011;9579;49.488;8.226;2023-04-19T09:50:08;12.05;;;10.98;;
18893;SDS011;9579;49.488;8.226;2023-04-19T09:53:14;12.35;;;11.15;;
18893;SDS011;9579;49.488;8.226;2023-04-19T09:56:06;11.40;;;10.30;;
18893;SDS011;9579;49.488;8.226;2023-04-19T09:59:08;10.60;;;9.63;;
18893;SDS011;9579;49.488;8.226;2023-04-19T10:02:02;12.50;;;11.40;;
18893;SDS011;9579;49.488;8.226;2023-04-19T10:04:58;12.10;;;11.05;;
18893;SDS011;9579;49.488;8.226;2023-04-19T10:07:55;10.60;;;9.60;;
18893;SDS011;9579;49.488;8.226;2023-04-19T10:11:06;10.00;;;9.05;;
18893;SDS011;9579;49.488;8.226;2023-04-19T10:13:55;10.35;;;9.45;;
18893;SDS011;9579;49.488;8.226;2023-04-19T10:16:54;10.15;;;9.35;;
18893;SDS011;9579;49.488;8.226;2023-04-19T10:22:59;11.50;;;10.52;;
18893;SDS011;9579;49.488;8.226;2023-04-19T10:25:54;10.85;;;9.85;;
18893;SDS011;9579;49.488;8.226;2023-04-19T10:28:52;11.00;;;10.10;;
18893;SDS011;9579;49.488;8.226;2023-04-19T10:49:43;8.90;;;8.10;;
18893;SDS011;9579;49.488;8.226;2023-04-19T10:59:47;9.07;;;8.30;;
18893;SDS011;9579;49.488;8.226;2023-04-19T11:02:50;8.82;;;8.02;;
18893;SDS011;9579;49.488;8.226;2023-04-19T11:08:54;9.77;;;8.98;;
18893;SDS011;9579;49.488;8.226;2023-04-19T11:11:42;9.52;;;8.55;;
18893;SDS011;9579;49.488;8.226;2023-04-19T11:14:29;9.30;;;8.50;;
18893;SDS011;9579;49.488;8.226;2023-04-19T11:17:18;8.77;;;7.97;;
18893;SDS011;9579;49.488;8.226;2023-04-19T11:20:11;8.90;;;8.10;;
18893;SDS011;9579;49.488;8.226;2023-04-19T11:22:58;7.32;;;6.72;;
18893;SDS011;9579;49.488;8.226;2023-04-19T11:25:45;8.20;;;7.60;;
18893;SDS011;9579;49.488;8.226;2023-04-19T11:28:36;8.13;;;7.43;;
18893;SDS011;9579;49.488;8.226;2023-04-19T11:31:24;7.53;;;6.90;;
18893;SDS011;9579;49.488;8.226;2023-04-19T11:34:11;7.25;;;6.65;;
18893;SDS011;9579;49.488;8.226;2023-04-19T11:36:59;6.57;;;6.03;;
18893;SDS011;9579;49.488;8.226;2023-04-19T11:39:46;6.88;;;6.20;;
18893;SDS011;9579;49.488;8.226;2023-04-19T11:42:34;6.65;;;6.13;;
18893;SDS011;9579;49.488;8.226;2023-04-19T11:45:24;6.53;;;5.95;;
18893;SDS011;9579;49.488;8.226;2023-04-19T11:48:13;6.50;;;6.00;;
18893;SDS011;9579;49.488;8.226;2023-04-19T11:51:01;6.85;;;6.32;;
18893;SDS011;9579;49.488;8.226;2023-04-19T11:53:49;6.65;;;6.05;;
18893;SDS011;9579;49.488;8.226;2023-04-19T11:56:36;6.30;;;5.70;;
18893;SDS011;9579;49.488;8.226;2023-04-19T12:02:51;6.00;;;5.50;;
18893;SDS011;9579;49.488;8.226;2023-04-19T12:05:38;6.00;;;5.38;;
18893;SDS011;9579;49.488;8.226;2023-04-19T12:08:29;6.53;;;5.93;;
18893;SDS011;9579;49.488;8.226;2023-04-19T12:11:19;6.97;;;6.13;;
18893;SDS011;9579;49.488;8.226;2023-04-19T12:14:07;6.28;;;5.68;;
18893;SDS011;9579;49.488;8.226;2023-04-19T12:17:05;9.13;;;6.05;;
18893;SDS011;9579;49.488;8.226;2023-04-19T12:19:56;5.00;;;4.60;;
18893;SDS011;9579;49.488;8.226;2023-04-19T12:22:43;5.30;;;4.80;;
18893;SDS011;9579;49.488;8.226;2023-04-19T12:25:30;5.45;;;5.00;;
18893;SDS011;9579;49.488;8.226;2023-04-19T12:28:19;4.93;;;4.53;;
18893;SDS011;9579;49.488;8.226;2023-04-19T12:31:07;4.50;;;3.75;;
18893;SDS011;9579;49.488;8.226;2023-04-19T12:33:54;4.60;;;4.20;;
18893;SDS011;9579;49.488;8.226;2023-04-19T12:36:42;4.30;;;3.90;;
18893;SDS011;9579;49.488;8.226;2023-04-19T12:39:29;4.55;;;4.07;;
18893;SDS011;9579;49.488;8.226;2023-04-19T12:42:16;4.97;;;4.40;;
18893;SDS011;9579;49.488;8.226;2023-04-19T12:45:05;4.55;;;4.15;;
18893;SDS011;9579;49.488;8.226;2023-04-19T12:47:52;5.38;;;4.20;;
18893;SDS011;9579;49.488;8.226;2023-04-19T12:50:39;4.43;;;4.10;;
18893;SDS011;9579;49.488;8.226;2023-04-19T12:53:26;4.60;;;4.20;;
18893;SDS011;9579;49.488;8.226;2023-04-19T12:56:13;5.78;;;4.78;;
18893;SDS011;9579;49.488;8.226;2023-04-19T12:59:01;5.05;;;4.55;;
18893;SDS011;9579;49.488;8.226;2023-04-19T13:01:50;5.28;;;4.60;;
18893;SDS011;9579;49.488;8.226;2023-04-19T13:04:37;5.00;;;4.60;;
18893;SDS011;9579;49.488;8.226;2023-04-19T13:07:24;5.60;;;4.90;;
18893;SDS011;9579;49.488;8.226;2023-04-19T13:10:12;4.57;;;4.03;;
18893;SDS011;9579;49.488;8.226;2023-04-19T13:12:59;4.93;;;4.50;;
18893;SDS011;9579;49.488;8.226;2023-04-19T13:15:46;5.55;;;4.75;;
18893;SDS011;9579;49.488;8.226;2023-04-19T13:18:35;4.47;;;4.18;;
18893;SDS011;9579;49.488;8.226;2023-04-19T13:21:22;4.47;;;4.18;;
18893;SDS011;9579;49.488;8.226;2023-04-19T13:24:09;4.50;;;4.03;;
18893;SDS011;9579;49.488;8.226;2023-04-19T13:26:56;5.68;;;4.65;;
18893;SDS011;9579;49.488;8.226;2023-04-19T13:29:43;5.15;;;4.65;;
18893;SDS011;9579;49.488;8.226;2023-04-19T13:32:30;4.13;;;3.72;;
18893;SDS011;9579;49.488;8.226;2023-04-19T13:35:19;3.80;;;3.50;;
18893;SDS011;9579;49.488;8.226;2023-04-19T13:38:06;3.85;;;3.55;;
18893;SDS011;9579;49.488;8.226;2023-04-19T13:40:53;4.18;;;3.38;;
18893;SDS011;9579;49.488;8.226;2023-04-19T13:43:40;4.72;;;3.50;;
18893;SDS011;9579;49.488;8.226;2023-04-19T13:46:27;3.50;;;3.20;;
18893;SDS011;9579;49.488;8.226;2023-04-19T13:49:14;3.70;;;3.40;;
18893;SDS011;9579;49.488;8.226;2023-04-19T13:52:03;3.55;;;2.80;;
18893;SDS011;9579;49.488;8.226;2023-04-19T13:54:50;3.88;;;2.90;;
18893;SDS011;9579;49.488;8.226;2023-04-19T13:57:37;3.28;;;2.95;;
18893;SDS011;9579;49.488;8.226;2023-04-19T14:00:24;3.67;;;2.75;;
18893;SDS011;9579;49.488;8.226;2023-04-19T14:03:11;3.47;;;2.80;;
18893;SDS011;9579;49.488;8.226;2023-04-19T14:05:58;3.22;;;2.90;;
18893;SDS011;9579;49.488;8.226;2023-04-19T14:08:46;3.00;;;2.80;;
18893;SDS011;9579;49.488;8.226;2023-04-19T14:11:33;4.05;;;2.72;;
18893;SDS011;9579;49.488;8.226;2023-04-19T14:14:22;3.22;;;2.30;;
18893;SDS011;9579;49.488;8.226;2023-04-19T14:17:09;2.85;;;2.10;;
18893;SDS011;9579;49.488;8.226;2023-04-19T14:19:56;3.22;;;2.08;;
18893;SDS011;9579;49.488;8.226;2023-04-19T14:22:44;4.90;;;2.30;;
18893;SDS011;9579;49.488;8.226;2023-04-19T14:25:32;2.30;;;2.10;;
18893;SDS011;9579;49.488;8.226;2023-04-19T14:28:21;2.33;;;1.85;;
18893;SDS011;9579;49.488;8.226;2023-04-19T14:31:08;2.38;;;2.17;;
18893;SDS011;9579;49.488;8.226;2023-04-19T14:33:55;2.33;;;2.13;;
18893;SDS011;9579;49.488;8.226;2023-04-19T14:36:43;6.03;;;2.40;;
18893;SDS011;9579;49.488;8.226;2023-04-19T14:39:30;2.90;;;2.28;;
18893;SDS011;9579;49.488;8.226;2023-04-19T14:42:19;3.15;;;2.00;;
18893;SDS011;9579;49.488;8.226;2023-04-19T14:45:06;2.20;;;2.00;;
18893;SDS011;9579;49.488;8.226;2023-04-19T14:47:54;3.47;;;2.42;;
18893;SDS011;9579;49.488;8.226;2023-04-19T14:50:41;2.47;;;2.28;;
18893;SDS011;9579;49.488;8.226;2023-04-19T14:53:28;2.35;;;2.08;;
18893;SDS011;9579;49.488;8.226;2023-04-19T14:56:15;4.35;;;2.05;;
18893;SDS011;9579;49.488;8.226;2023-04-19T14:59:04;2.58;;;1.90;;
18893;SDS011;9579;49.488;8.226;2023-04-19T15:01:52;2.13;;;1.92;;
18893;SDS011;9579;49.488;8.226;2023-04-19T15:04:39;2.85;;;1.95;;
18893;SDS011;9579;49.488;8.226;2023-04-19T15:07:26;3.20;;;2.00;;
18893;SDS011;9579;49.488;8.226;2023-04-19T15:10:13;2.83;;;1.90;;
18893;SDS011;9579;49.488;8.226;2023-04-19T15:13:00;3.13;;;1.90;;
18893;SDS011;9579;49.488;8.226;2023-04-19T15:15:49;2.47;;;2.13;;
18893;SDS011;9579;49.488;8.226;2023-04-19T15:18:36;2.47;;;1.77;;
18893;SDS011;9579;49.488;8.226;2023-04-19T15:21:23;3.30;;;2.00;;
18893;SDS011;9579;49.488;8.226;2023-04-19T15:24:10;4.05;;;1.92;;
18893;SDS011;9579;49.488;8.226;2023-04-19T15:26:59;2.58;;;2.10;;
18893;SDS011;9579;49.488;8.226;2023-04-19T15:29:46;2.80;;;2.08;;
18893;SDS011;9579;49.488;8.226;2023-04-19T15:32:35;2.75;;;2.00;;
18893;SDS011;9579;49.488;8.226;2023-04-19T15:35:23;2.50;;;2.30;;
18893;SDS011;9579;49.488;8.226;2023-04-19T15:38:10;4.57;;;2.30;;
18893;SDS011;9579;49.488;8.226;2023-04-19T15:40:57;2.97;;;2.03;;
18893;SDS011;9579;49.488;8.226;2023-04-19T15:43:45;2.60;;;2.10;;
18893;SDS011;9579;49.488;8.226;2023-04-19T15:46:32;1.88;;;1.77;;
18893;SDS011;9579;49.488;8.226;2023-04-19T15:49:20;2.38;;;2.08;;
18893;SDS011;9579;49.488;8.226;2023-04-19T15:52:07;2.17;;;1.83;;
18893;SDS011;9579;49.488;8.226;2023-04-19T15:54:56;2.22;;;2.00;;
18893;SDS011;9579;49.488;8.226;2023-04-19T15:58:03;2.28;;;1.85;;
18893;SDS011;9579;49.488;8.226;2023-04-19T16:00:50;2.53;;;1.98;;
18893;SDS011;9579;49.488;8.226;2023-04-19T16:03:37;2.85;;;1.80;;
18893;SDS011;9579;49.488;8.226;2023-04-19T16:06:31;3.05;;;1.98;;
18893;SDS011;9579;49.488;8.226;2023-04-19T16:09:18;2.40;;;2.20;;
18893;SDS011;9579;49.488;8.226;2023-04-19T16:12:06;2.45;;;2.00;;
18893;SDS011;9579;49.488;8.226;2023-04-19T16:14:53;2.20;;;2.10;;
18893;SDS011;9579;49.488;8.226;2023-04-19T16:17:40;3.05;;;2.15;;
18893;SDS011;9579;49.488;8.226;2023-04-19T16:20:27;2.30;;;2.13;;
18893;SDS011;9579;49.488;8.226;2023-04-19T16:23:16;2.85;;;2.10;;
18893;SDS011;9579;49.488;8.226;2023-04-19T16:26:03;2.33;;;2.08;;
18893;SDS011;9579;49.488;8.226;2023-04-19T16:28:51;2.28;;;1.85;;
18893;SDS011;9579;49.488;8.226;2023-04-19T16:31:39;2.38;;;1.98;;
18893;SDS011;9579;49.488;8.226;2023-04-19T16:34:25;4.00;;;2.17;;
18893;SDS011;9579;49.488;8.226;2023-04-19T16:37:13;3.58;;;2.60;;
18893;SDS011;9579;49.488;8.226;2023-04-19T16:40:03;2.30;;;2.10;;
18893;SDS011;9579;49.488;8.226;2023-04-19T16:42:53;2.35;;;2.15;;
18893;SDS011;9579;49.488;8.226;2023-04-19T16:45:41;4.10;;;2.10;;
18893;SDS011;9579;49.488;8.226;2023-04-19T16:48:28;3.00;;;2.30;;
18893;SDS011;9579;49.488;8.226;2023-04-19T16:51:15;2.97;;;2.40;;
18893;SDS011;9579;49.488;8.226;2023-04-19T16:54:02;2.35;;;1.90;;
18893;SDS011;9579;49.488;8.226;2023-04-19T16:56:51;2.30;;;2.10;;
18893;SDS011;9579;49.488;8.226;2023-04-19T16:59:38;3.53;;;2.17;;
18893;SDS011;9579;49.488;8.226;2023-04-19T17:02:25;2.42;;;2.10;;
18893;SDS011;9579;49.488;8.226;2023-04-19T17:05:12;3.10;;;2.22;;
18893;SDS011;9579;49.488;8.226;2023-04-19T17:08:00;2.40;;;2.20;;
18893;SDS011;9579;49.488;8.226;2023-04-19T17:10:47;2.35;;;1.83;;
18893;SDS011;9579;49.488;8.226;2023-04-19T17:13:36;3.00;;;2.05;;
18893;SDS011;9579;49.488;8.226;2023-04-19T17:16:24;4.22;;;2.05;;
18893;SDS011;9579;49.488;8.226;2023-04-19T17:19:11;10.23;;;2.55;;
18893;SDS011;9579;49.488;8.226;2023-04-19T17:21:58;3.28;;;2.10;;
18893;SDS011;9579;49.488;8.226;2023-04-19T17:24:49;2.33;;;1.90;;
18893;SDS011;9579;49.488;8.226;2023-04-19T17:27:38;3.00;;;1.88;;
18893;SDS011;9579;49.488;8.226;2023-04-19T17:30:26;2.20;;;2.00;;
18893;SDS011;9579;49.488;8.226;2023-04-19T17:33:13;4.03;;;2.40;;
18893;SDS011;9579;49.488;8.226;2023-04-19T17:36:00;3.72;;;2.20;;
18893;SDS011;9579;49.488;8.226;2023-04-19T17:38:48;2.75;;;2.35;;
18893;SDS011;9579;49.488;8.226;2023-04-19T17:41:34;3.08;;;2.10;;
18893;SDS011;9579;49.488;8.226;2023-04-19T17:44:22;2.63;;;2.10;;
18893;SDS011;9579;49.488;8.226;2023-04-19T17:47:10;2.40;;;2.20;;
18893;SDS011;9579;49.488;8.226;2023-04-19T17:50:05;2.17;;;1.95;;
18893;SDS011;9579;49.488;8.226;2023-04-19T17:52:53;4.22;;;2.35;;
18893;SDS011;9579;49.488;8.226;2023-04-19T17:55:40;2.92;;;2.33;;
18893;SDS011;9579;49.488;8.226;2023-04-19T17:58:27;2.47;;;2.28;;
18893;SDS011;9579;49.488;8.226;2023-04-19T18:01:14;3.95;;;3.20;;
18893;SDS011;9579;49.488;8.226;2023-04-19T18:04:02;3.20;;;2.88;;
18893;SDS011;9579;49.488;8.226;2023-04-19T18:06:50;3.45;;;2.78;;
18893;SDS011;9579;49.488;8.226;2023-04-19T18:09:37;3.63;;;2.75;;
18893;SDS011;9579;49.488;8.226;2023-04-19T18:12:24;3.13;;;2.35;;
18893;SDS011;9579;49.488;8.226;2023-04-19T18:15:11;3.15;;;2.88;;
18893;SDS011;9579;49.488;8.226;2023-04-19T18:17:57;2.58;;;2.28;;
18893;SDS011;9579;49.488;8.226;2023-04-19T18:20:46;7.70;;;6.82;;
18893;SDS011;9579;49.488;8.226;2023-04-19T18:23:34;15.32;;;13.30;;
18893;SDS011;9579;49.488;8.226;2023-04-19T18:26:21;26.47;;;19.60;;
18893;SDS011;9579;49.488;8.226;2023-04-19T18:29:08;50.17;;;33.05;;
18893;SDS011;9579;49.488;8.226;2023-04-19T18:31:56;25.15;;;18.88;;
18893;SDS011;9579;49.488;8.226;2023-04-19T18:34:44;30.70;;;23.80;;
18893;SDS011;9579;49.488;8.226;2023-04-19T18:37:33;21.93;;;18.23;;
18893;SDS011;9579;49.488;8.226;2023-04-19T18:40:20;17.87;;;16.03;;
18893;SDS011;9579;49.488;8.226;2023-04-19T18:43:07;6.27;;;5.27;;
18893;SDS011;9579;49.488;8.226;2023-04-19T18:45:54;4.23;;;3.00;;
18893;SDS011;9579;49.488;8.226;2023-04-19T18:48:41;2.70;;;2.50;;
18893;SDS011;9579;49.488;8.226;2023-04-19T18:51:28;3.50;;;2.93;;
18893;SDS011;9579;49.488;8.226;2023-04-19T18:54:18;3.73;;;2.80;;
18893;SDS011;9579;49.488;8.226;2023-04-19T18:57:05;2.90;;;2.70;;
18893;SDS011;9579;49.488;8.226;2023-04-19T18:59:53;3.87;;;2.40;;
18893;SDS011;9579;49.488;8.226;2023-04-19T19:02:41;3.03;;;2.80;;
18893;SDS011;9579;49.488;8.226;2023-04-19T19:05:28;3.37;;;2.40;;
18893;SDS011;9579;49.488;8.226;2023-04-19T19:08:15;2.50;;;2.30;;
18893;SDS011;9579;49.488;8.226;2023-04-19T19:11:03;2.73;;;2.50;;
18893;SDS011;9579;49.488;8.226;2023-04-19T19:13:51;2.60;;;2.40;;
18893;SDS011;9579;49.488;8.226;2023-04-19T19:16:38;3.00;;;2.20;;
18893;SDS011;9579;49.488;8.226;2023-04-19T19:19:25;3.37;;;2.40;;
18893;SDS011;9579;49.488;8.226;2023-04-19T19:22:12;3.20;;;2.80;;
18893;SDS011;9579;49.488;8.226;2023-04-19T19:24:59;2.60;;;2.40;;
18893;SDS011;9579;49.488;8.226;2023-04-19T19:27:47;2.60;;;2.40;;
18893;SDS011;9579;49.488;8.226;2023-04-19T19:30:39;2.53;;;2.30;;
18893;SDS011;9579;49.488;8.226;2023-04-19T19:33:29;3.97;;;2.60;;
18893;SDS011;9579;49.488;8.226;2023-04-19T19:36:16;4.20;;;2.70;;
18893;SDS011;9579;49.488;8.226;2023-04-19T19:39:03;3.70;;;2.83;;
18893;SDS011;9579;49.488;8.226;2023-04-19T19:41:50;3.13;;;2.70;;
18893;SDS011;9579;49.488;8.226;2023-04-19T19:44:38;2.77;;;2.57;;
18893;SDS011;9579;49.488;8.226;2023-04-19T19:47:26;3.37;;;2.43;;
18893;SDS011;9579;49.488;8.226;2023-04-19T19:50:15;2.80;;;2.60;;
18893;SDS011;9579;49.488;8.226;2023-04-19T19:53:04;3.57;;;2.70;;
18893;SDS011;9579;49.488;8.226;2023-04-19T19:55:51;3.03;;;2.70;;
18893;SDS011;9579;49.488;8.226;2023-04-19T19:58:38;2.73;;;2.53;;
18893;SDS011;9579;49.488;8.226;2023-04-19T20:01:27;3.10;;;2.90;;
18893;SDS011;9579;49.488;8.226;2023-04-19T20:04:14;3.20;;;3.00;;
18893;SDS011;9579;49.488;8.226;2023-04-19T20:07:01;2.90;;;2.60;;
18893;SDS011;9579;49.488;8.226;2023-04-19T20:09:48;3.33;;;3.03;;
18893;SDS011;9579;49.488;8.226;2023-04-19T20:12:36;3.17;;;2.87;;
18893;SDS011;9579;49.488;8.226;2023-04-19T20:15:27;3.23;;;2.93;;
18893;SDS011;9579;49.488;8.226;2023-04-19T20:18:16;3.17;;;2.87;;
18893;SDS011;9579;49.488;8.226;2023-04-19T20:21:03;3.30;;;3.00;;
18893;SDS011;9579;49.488;8.226;2023-04-19T20:23:50;3.87;;;3.30;;
18893;SDS011;9579;49.488;8.226;2023-04-19T20:26:38;3.57;;;3.27;;
18893;SDS011;9579;49.488;8.226;2023-04-19T20:29:25;3.80;;;3.50;;
18893;SDS011;9579;49.488;8.226;2023-04-19T20:32:12;3.60;;;3.30;;
18893;SDS011;9579;49.488;8.226;2023-04-19T20:35:01;4.50;;;3.80;;
18893;SDS011;9579;49.488;8.226;2023-04-19T20:37:52;4.00;;;3.70;;
18893;SDS011;9579;49.488;8.226;2023-04-19T20:40:46;3.90;;;3.60;;
18893;SDS011;9579;49.488;8.226;2023-04-19T20:43:33;4.07;;;3.50;;
18893;SDS011;9579;49.488;8.226;2023-04-19T20:46:20;6.90;;;6.07;;
18893;SDS011;9579;49.488;8.226;2023-04-19T20:49:07;5.83;;;5.23;;
18893;SDS011;9579;49.488;8.226;2023-04-19T20:51:56;4.70;;;4.20;;
18893;SDS011;9579;49.488;8.226;2023-04-19T20:54:43;4.33;;;3.93;;
18893;SDS011;9579;49.488;8.226;2023-04-19T20:57:30;4.43;;;4.03;;
18893;SDS011;9579;49.488;8.226;2023-04-19T21:02:53;5.60;;;3.80;;